sensor_id;sensor_type;location;lat;lon;timestamp;P1;durP1;ratioP1;P2;durP2;ratioP2
25079;SDS011;13071;48.868;9.996;2023-07-29T00:01:12;2.53;;;1.80;;
25079;SDS011;13071;48.868;9.996;2023-07-29T00:03:39;2.40;;;2.00;;
25079;SDS011;13071;48.868;9.996;2023-07-29T00:06:06;2.83;;;1.63;;
25079;SDS011;13071;48.868;9.996;2023-07-29T00:08:34;2.83;;;2.03;;
25079;SDS011;13071;48.868;9.996;2023-07-29T00:11:01;2.28;;;1.80;;
25079;SDS011;13071;48.868;9.996;2023-07-29T00:13:27;2.38;;;1.88;;
25079;SDS011;13071;48.868;9.996;2023-07-29T00:15:54;2.42;;;2.00;;
25079;SDS011;13071;48.868;9.996;2023-07-29T00:18:21;2.00;;;1.90;;
25079;SDS011;13071;48.868;9.996;2023-07-29T00:20:48;2.25;;;2.00;;
25079;SDS011;13071;48.868;9.996;2023-07-29T00:23:16;3.33;;;1.90;;
25079;SDS011;13071;48.868;9.996;2023-07-29T00:25:46;1.70;;;1.50;;
25079;SDS011;13071;48.868;9.996;2023-07-29T00:28:12;1.67;;;1.58;;
25079;SDS011;13071;48.868;9.996;2023-07-29T00:30:39;1.50;;;1.40;;
25079;SDS011;13071;48.868;9.996;2023-07-29T00:33:06;1.17;;;1.15;;
25079;SDS011;13071;48.868;9.996;2023-07-29T00:35:33;3.38;;;1.00;;
25079;SDS011;13071;48.868;9.996;2023-07-29T00:38:00;1.02;;;0.98;;
25079;SDS011;13071;48.868;9.996;2023-07-29T00:40:28;1.13;;;1.10;;
25079;SDS011;13071;48.868;9.996;2023-07-29T00:42:56;2.47;;;1.67;;
25079;SDS011;13071;48.868;9.996;2023-07-29T00:45:23;0.90;;;0.90;;
25079;SDS011;13071;48.868;9.996;2023-07-29T00:47:52;1.20;;;1.10;;
25079;SDS011;13071;48.868;9.996;2023-07-29T00:50:19;2.80;;;1.00;;
25079;SDS011;13071;48.868;9.996;2023-07-29T00:52:46;0.90;;;0.90;;
25079;SDS011;13071;48.868;9.996;2023-07-29T00:55:13;3.95;;;1.20;;
25079;SDS011;13071;48.868;9.996;2023-07-29T00:57:39;1.13;;;1.10;;
25079;SDS011;13071;48.868;9.996;2023-07-29T01:00:09;1.00;;;1.00;;
25079;SDS011;13071;48.868;9.996;2023-07-29T01:02:36;1.33;;;1.23;;
25079;SDS011;13071;48.868;9.996;2023-07-29T01:05:04;0.75;;;0.75;;
25079;SDS011;13071;48.868;9.996;2023-07-29T01:07:33;1.48;;;1.38;;
25079;SDS011;13071;48.868;9.996;2023-07-29T01:10:07;0.90;;;0.90;;
25079;SDS011;13071;48.868;9.996;2023-07-29T01:12:42;1.05;;;1.02;;
25079;SDS011;13071;48.868;9.996;2023-07-29T01:15:16;1.95;;;0.73;;
25079;SDS011;13071;48.868;9.996;2023-07-29T01:17:47;1.20;;;1.10;;
25079;SDS011;13071;48.868;9.996;2023-07-29T01:20:18;1.10;;;1.10;;
25079;SDS011;13071;48.868;9.996;2023-07-29T01:22:46;1.58;;;0.90;;
25079;SDS011;13071;48.868;9.996;2023-07-29T01:25:15;0.80;;;0.80;;
25079;SDS011;13071;48.868;9.996;2023-07-29T01:27:45;1.00;;;1.00;;
25079;SDS011;13071;48.868;9.996;2023-07-29T01:30:13;1.30;;;0.90;;
25079;SDS011;13071;48.868;9.996;2023-07-29T01:32:41;0.95;;;0.80;;
25079;SDS011;13071;48.868;9.996;2023-07-29T01:35:15;1.10;;;1.10;;
25079;SDS011;13071;48.868;9.996;2023-07-29T01:37:48;0.90;;;0.90;;
25079;SDS011;13071;48.868;9.996;2023-07-29T01:40:20;1.08;;;0.90;;
25079;SDS011;13071;48.868;9.996;2023-07-29T01:42:49;2.70;;;1.58;;
25079;SDS011;13071;48.868;9.996;2023-07-29T01:45:16;1.05;;;0.95;;
25079;SDS011;13071;48.868;9.996;2023-07-29T01:47:43;1.45;;;0.95;;
25079;SDS011;13071;48.868;9.996;2023-07-29T01:50:10;2.80;;;1.10;;
25079;SDS011;13071;48.868;9.996;2023-07-29T01:52:37;1.38;;;1.13;;
25079;SDS011;13071;48.868;9.996;2023-07-29T01:55:04;1.83;;;0.85;;
25079;SDS011;13071;48.868;9.996;2023-07-29T01:57:32;2.08;;;0.95;;
25079;SDS011;13071;48.868;9.996;2023-07-29T01:59:59;1.23;;;0.80;;
25079;SDS011;13071;48.868;9.996;2023-07-29T02:02:25;1.02;;;0.93;;
25079;SDS011;13071;48.868;9.996;2023-07-29T02:04:52;1.02;;;0.98;;
25079;SDS011;13071;48.868;9.996;2023-07-29T02:07:20;1.42;;;0.90;;
25079;SDS011;13071;48.868;9.996;2023-07-29T02:09:47;0.80;;;0.80;;
25079;SDS011;13071;48.868;9.996;2023-07-29T02:12:14;0.80;;;0.80;;
25079;SDS011;13071;48.868;9.996;2023-07-29T02:14:42;1.00;;;0.70;;
25079;SDS011;13071;48.868;9.996;2023-07-29T02:17:09;0.80;;;0.80;;
25079;SDS011;13071;48.868;9.996;2023-07-29T02:19:35;1.90;;;1.00;;
25079;SDS011;13071;48.868;9.996;2023-07-29T02:22:02;1.15;;;0.80;;
25079;SDS011;13071;48.868;9.996;2023-07-29T02:24:29;0.75;;;0.73;;
25079;SDS011;13071;48.868;9.996;2023-07-29T02:26:55;1.00;;;1.00;;
25079;SDS011;13071;48.868;9.996;2023-07-29T02:29:22;1.58;;;1.10;;
25079;SDS011;13071;48.868;9.996;2023-07-29T02:31:51;0.95;;;0.95;;
25079;SDS011;13071;48.868;9.996;2023-07-29T02:34:18;1.13;;;1.08;;
25079;SDS011;13071;48.868;9.996;2023-07-29T02:36:44;0.90;;;0.90;;
25079;SDS011;13071;48.868;9.996;2023-07-29T02:39:11;1.20;;;1.00;;
25079;SDS011;13071;48.868;9.996;2023-07-29T02:41:38;1.95;;;1.00;;
25079;SDS011;13071;48.868;9.996;2023-07-29T02:44:05;4.03;;;1.08;;
25079;SDS011;13071;48.868;9.996;2023-07-29T02:46:31;2.13;;;0.95;;
25079;SDS011;13071;48.868;9.996;2023-07-29T02:49:01;1.42;;;0.88;;
25079;SDS011;13071;48.868;9.996;2023-07-29T02:51:28;0.90;;;0.90;;
25079;SDS011;13071;48.868;9.996;2023-07-29T02:53:55;1.00;;;1.00;;
25079;SDS011;13071;48.868;9.996;2023-07-29T02:56:22;1.08;;;1.00;;
25079;SDS011;13071;48.868;9.996;2023-07-29T02:58:48;2.97;;;1.10;;
25079;SDS011;13071;48.868;9.996;2023-07-29T03:01:16;1.52;;;0.88;;
25079;SDS011;13071;48.868;9.996;2023-07-29T03:03:43;1.33;;;1.10;;
25079;SDS011;13071;48.868;9.996;2023-07-29T03:06:12;1.05;;;1.05;;
25079;SDS011;13071;48.868;9.996;2023-07-29T03:08:39;1.65;;;0.90;;
25079;SDS011;13071;48.868;9.996;2023-07-29T03:11:06;1.58;;;1.10;;
25079;SDS011;13071;48.868;9.996;2023-07-29T03:13:36;1.02;;;0.93;;
25079;SDS011;13071;48.868;9.996;2023-07-29T03:16:06;1.00;;;1.00;;
25079;SDS011;13071;48.868;9.996;2023-07-29T03:18:34;1.08;;;0.98;;
25079;SDS011;13071;48.868;9.996;2023-07-29T03:21:00;0.93;;;0.93;;
25079;SDS011;13071;48.868;9.996;2023-07-29T03:23:29;1.58;;;0.85;;
25079;SDS011;13071;48.868;9.996;2023-07-29T03:25:57;4.50;;;1.10;;
25079;SDS011;13071;48.868;9.996;2023-07-29T03:28:25;0.90;;;0.90;;
25079;SDS011;13071;48.868;9.996;2023-07-29T03:30:53;0.90;;;0.90;;
25079;SDS011;13071;48.868;9.996;2023-07-29T03:33:19;2.13;;;1.17;;
25079;SDS011;13071;48.868;9.996;2023-07-29T03:35:46;1.85;;;0.98;;
25079;SDS011;13071;48.868;9.996;2023-07-29T03:38:13;1.33;;;1.08;;
25079;SDS011;13071;48.868;9.996;2023-07-29T03:40:41;1.15;;;1.00;;
25079;SDS011;13071;48.868;9.996;2023-07-29T03:43:08;2.75;;;1.30;;
25079;SDS011;13071;48.868;9.996;2023-07-29T03:45:35;4.43;;;1.30;;
25079;SDS011;13071;48.868;9.996;2023-07-29T03:48:03;1.23;;;1.20;;
25079;SDS011;13071;48.868;9.996;2023-07-29T03:50:33;1.90;;;1.17;;
25079;SDS011;13071;48.868;9.996;2023-07-29T03:53:00;3.65;;;1.30;;
25079;SDS011;13071;48.868;9.996;2023-07-29T03:55:27;5.15;;;1.27;;
25079;SDS011;13071;48.868;9.996;2023-07-29T03:57:56;1.65;;;1.48;;
25079;SDS011;13071;48.868;9.996;2023-07-29T04:00:23;1.40;;;1.30;;
25079;SDS011;13071;48.868;9.996;2023-07-29T04:02:49;3.13;;;1.30;;
25079;SDS011;13071;48.868;9.996;2023-07-29T04:05:16;1.95;;;1.02;;
25079;SDS011;13071;48.868;9.996;2023-07-29T04:07:43;1.13;;;1.10;;
25079;SDS011;13071;48.868;9.996;2023-07-29T04:10:10;3.60;;;1.17;;
25079;SDS011;13071;48.868;9.996;2023-07-29T04:12:37;2.13;;;1.38;;
25079;SDS011;13071;48.868;9.996;2023-07-29T04:15:06;1.70;;;1.55;;
25079;SDS011;13071;48.868;9.996;2023-07-29T04:17:33;3.33;;;1.30;;
25079;SDS011;13071;48.868;9.996;2023-07-29T04:20:00;3.75;;;1.35;;
25079;SDS011;13071;48.868;9.996;2023-07-29T04:22:27;1.50;;;1.30;;
25079;SDS011;13071;48.868;9.996;2023-07-29T04:24:54;1.48;;;1.40;;
25079;SDS011;13071;48.868;9.996;2023-07-29T04:27:21;1.00;;;1.00;;
25079;SDS011;13071;48.868;9.996;2023-07-29T04:29:47;2.20;;;1.30;;
25079;SDS011;13071;48.868;9.996;2023-07-29T04:32:15;3.58;;;1.77;;
25079;SDS011;13071;48.868;9.996;2023-07-29T04:34:42;1.50;;;1.20;;
25079;SDS011;13071;48.868;9.996;2023-07-29T04:37:09;1.63;;;1.48;;
25079;SDS011;13071;48.868;9.996;2023-07-29T04:39:35;1.13;;;1.02;;
25079;SDS011;13071;48.868;9.996;2023-07-29T04:42:02;1.15;;;1.15;;
25079;SDS011;13071;48.868;9.996;2023-07-29T04:44:29;1.25;;;1.20;;
25079;SDS011;13071;48.868;9.996;2023-07-29T04:46:56;2.17;;;1.35;;
25079;SDS011;13071;48.868;9.996;2023-07-29T04:49:24;1.48;;;1.30;;
25079;SDS011;13071;48.868;9.996;2023-07-29T04:51:50;1.20;;;1.10;;
25079;SDS011;13071;48.868;9.996;2023-07-29T04:54:17;1.50;;;1.40;;
25079;SDS011;13071;48.868;9.996;2023-07-29T04:56:45;1.15;;;1.15;;
25079;SDS011;13071;48.868;9.996;2023-07-29T04:59:12;1.90;;;1.50;;
25079;SDS011;13071;48.868;9.996;2023-07-29T05:01:39;1.92;;;1.58;;
25079;SDS011;13071;48.868;9.996;2023-07-29T05:04:07;1.60;;;1.50;;
25079;SDS011;13071;48.868;9.996;2023-07-29T05:06:35;2.78;;;1.63;;
25079;SDS011;13071;48.868;9.996;2023-07-29T05:09:12;1.60;;;1.27;;
25079;SDS011;13071;48.868;9.996;2023-07-29T05:11:39;2.10;;;1.48;;
25079;SDS011;13071;48.868;9.996;2023-07-29T05:14:06;3.17;;;1.25;;
25079;SDS011;13071;48.868;9.996;2023-07-29T05:16:34;1.50;;;1.40;;
25079;SDS011;13071;48.868;9.996;2023-07-29T05:19:00;1.50;;;1.40;;
25079;SDS011;13071;48.868;9.996;2023-07-29T05:21:27;1.70;;;1.50;;
25079;SDS011;13071;48.868;9.996;2023-07-29T05:23:55;1.40;;;1.30;;
25079;SDS011;13071;48.868;9.996;2023-07-29T05:26:22;1.38;;;1.30;;
25079;SDS011;13071;48.868;9.996;2023-07-29T05:28:49;1.60;;;1.50;;
25079;SDS011;13071;48.868;9.996;2023-07-29T05:31:15;3.85;;;1.42;;
25079;SDS011;13071;48.868;9.996;2023-07-29T05:33:42;2.47;;;1.55;;
25079;SDS011;13071;48.868;9.996;2023-07-29T05:36:09;1.35;;;1.30;;
25079;SDS011;13071;48.868;9.996;2023-07-29T05:38:36;1.45;;;1.33;;
25079;SDS011;13071;48.868;9.996;2023-07-29T05:41:04;2.83;;;1.55;;
25079;SDS011;13071;48.868;9.996;2023-07-29T05:43:31;1.70;;;1.52;;
25079;SDS011;13071;48.868;9.996;2023-07-29T05:45:57;2.67;;;1.50;;
25079;SDS011;13071;48.868;9.996;2023-07-29T05:48:24;3.35;;;1.52;;
25079;SDS011;13071;48.868;9.996;2023-07-29T05:50:51;2.33;;;1.60;;
25079;SDS011;13071;48.868;9.996;2023-07-29T05:53:17;1.67;;;1.55;;
25079;SDS011;13071;48.868;9.996;2023-07-29T05:55:44;1.33;;;1.33;;
25079;SDS011;13071;48.868;9.996;2023-07-29T05:58:12;1.52;;;1.50;;
25079;SDS011;13071;48.868;9.996;2023-07-29T06:00:39;1.70;;;1.60;;
25079;SDS011;13071;48.868;9.996;2023-07-29T06:03:05;1.33;;;1.30;;
25079;SDS011;13071;48.868;9.996;2023-07-29T06:05:32;4.45;;;1.70;;
25079;SDS011;13071;48.868;9.996;2023-07-29T06:07:58;1.80;;;1.55;;
25079;SDS011;13071;48.868;9.996;2023-07-29T06:10:25;1.38;;;1.38;;
25079;SDS011;13071;48.868;9.996;2023-07-29T06:12:52;1.65;;;1.55;;
25079;SDS011;13071;48.868;9.996;2023-07-29T06:15:20;1.88;;;1.48;;
25079;SDS011;13071;48.868;9.996;2023-07-29T06:17:48;2.40;;;1.38;;
25079;SDS011;13071;48.868;9.996;2023-07-29T06:20:14;1.85;;;1.73;;
25079;SDS011;13071;48.868;9.996;2023-07-29T06:22:41;3.45;;;1.70;;
25079;SDS011;13071;48.868;9.996;2023-07-29T06:25:08;3.58;;;1.73;;
25079;SDS011;13071;48.868;9.996;2023-07-29T06:27:35;3.22;;;2.00;;
25079;SDS011;13071;48.868;9.996;2023-07-29T06:30:02;4.55;;;1.60;;
25079;SDS011;13071;48.868;9.996;2023-07-29T06:32:30;2.28;;;1.70;;
25079;SDS011;13071;48.868;9.996;2023-07-29T06:34:57;1.75;;;1.65;;
25079;SDS011;13071;48.868;9.996;2023-07-29T06:37:24;2.00;;;1.80;;
25079;SDS011;13071;48.868;9.996;2023-07-29T06:39:50;2.17;;;1.90;;
25079;SDS011;13071;48.868;9.996;2023-07-29T06:42:17;1.35;;;1.30;;
25079;SDS011;13071;48.868;9.996;2023-07-29T06:44:44;1.70;;;1.40;;
25079;SDS011;13071;48.868;9.996;2023-07-29T06:47:11;2.05;;;1.73;;
25079;SDS011;13071;48.868;9.996;2023-07-29T06:49:39;1.60;;;1.50;;
25079;SDS011;13071;48.868;9.996;2023-07-29T06:52:06;1.60;;;1.45;;
25079;SDS011;13071;48.868;9.996;2023-07-29T06:54:33;2.70;;;1.85;;
25079;SDS011;13071;48.868;9.996;2023-07-29T06:56:59;2.08;;;1.85;;
25079;SDS011;13071;48.868;9.996;2023-07-29T06:59:26;1.88;;;1.77;;
25079;SDS011;13071;48.868;9.996;2023-07-29T07:01:53;1.60;;;1.50;;
25079;SDS011;13071;48.868;9.996;2023-07-29T07:04:19;1.67;;;1.58;;
25079;SDS011;13071;48.868;9.996;2023-07-29T07:06:47;1.85;;;1.50;;
25079;SDS011;13071;48.868;9.996;2023-07-29T07:09:14;2.47;;;1.40;;
25079;SDS011;13071;48.868;9.996;2023-07-29T07:11:41;1.60;;;1.50;;
25079;SDS011;13071;48.868;9.996;2023-07-29T07:14:07;1.63;;;1.52;;
25079;SDS011;13071;48.868;9.996;2023-07-29T07:16:34;7.00;;;1.60;;
25079;SDS011;13071;48.868;9.996;2023-07-29T07:19:02;1.60;;;1.50;;
25079;SDS011;13071;48.868;9.996;2023-07-29T07:21:28;1.50;;;1.40;;
25079;SDS011;13071;48.868;9.996;2023-07-29T07:23:56;2.83;;;1.70;;
25079;SDS011;13071;48.868;9.996;2023-07-29T07:26:23;2.78;;;1.30;;
25079;SDS011;13071;48.868;9.996;2023-07-29T07:28:50;2.47;;;1.95;;
25079;SDS011;13071;48.868;9.996;2023-07-29T07:31:17;2.15;;;1.67;;
25079;SDS011;13071;48.868;9.996;2023-07-29T07:33:44;2.35;;;2.03;;
25079;SDS011;13071;48.868;9.996;2023-07-29T07:36:11;1.77;;;1.67;;
25079;SDS011;13071;48.868;9.996;2023-07-29T07:38:37;1.92;;;1.55;;
25079;SDS011;13071;48.868;9.996;2023-07-29T07:41:05;5.07;;;1.58;;
25079;SDS011;13071;48.868;9.996;2023-07-29T07:43:32;1.52;;;1.42;;
25079;SDS011;13071;48.868;9.996;2023-07-29T07:45:59;1.30;;;1.20;;
25079;SDS011;13071;48.868;9.996;2023-07-29T07:48:26;5.68;;;1.60;;
25079;SDS011;13071;48.868;9.996;2023-07-29T07:50:53;3.83;;;1.48;;
25079;SDS011;13071;48.868;9.996;2023-07-29T07:53:19;7.50;;;1.92;;
25079;SDS011;13071;48.868;9.996;2023-07-29T07:55:46;13.52;;;2.17;;
25079;SDS011;13071;48.868;9.996;2023-07-29T07:58:14;3.72;;;1.73;;
25079;SDS011;13071;48.868;9.996;2023-07-29T08:00:41;1.67;;;1.50;;
25079;SDS011;13071;48.868;9.996;2023-07-29T08:03:08;1.52;;;1.20;;
25079;SDS011;13071;48.868;9.996;2023-07-29T08:05:34;4.18;;;1.50;;
25079;SDS011;13071;48.868;9.996;2023-07-29T08:08:01;1.85;;;1.60;;
25079;SDS011;13071;48.868;9.996;2023-07-29T08:10:28;3.10;;;1.27;;
25079;SDS011;13071;48.868;9.996;2023-07-29T08:12:54;5.75;;;1.48;;
25079;SDS011;13071;48.868;9.996;2023-07-29T08:15:22;2.53;;;1.58;;
25079;SDS011;13071;48.868;9.996;2023-07-29T08:17:49;2.05;;;1.17;;
25079;SDS011;13071;48.868;9.996;2023-07-29T08:20:16;1.13;;;1.13;;
25079;SDS011;13071;48.868;9.996;2023-07-29T08:22:43;0.85;;;0.85;;
25079;SDS011;13071;48.868;9.996;2023-07-29T08:25:09;1.48;;;1.00;;
25079;SDS011;13071;48.868;9.996;2023-07-29T08:27:36;1.45;;;1.08;;
25079;SDS011;13071;48.868;9.996;2023-07-29T08:30:03;0.77;;;0.77;;
25079;SDS011;13071;48.868;9.996;2023-07-29T08:32:31;0.88;;;0.80;;
25079;SDS011;13071;48.868;9.996;2023-07-29T08:34:58;2.08;;;1.05;;
25079;SDS011;13071;48.868;9.996;2023-07-29T08:37:25;2.25;;;1.05;;
25079;SDS011;13071;48.868;9.996;2023-07-29T08:39:52;1.70;;;1.17;;
25079;SDS011;13071;48.868;9.996;2023-07-29T08:42:20;2.35;;;0.93;;
25079;SDS011;13071;48.868;9.996;2023-07-29T08:44:49;0.80;;;0.80;;
25079;SDS011;13071;48.868;9.996;2023-07-29T08:47:17;1.48;;;0.90;;
25079;SDS011;13071;48.868;9.996;2023-07-29T08:49:46;0.60;;;0.60;;
25079;SDS011;13071;48.868;9.996;2023-07-29T08:52:14;1.55;;;0.70;;
25079;SDS011;13071;48.868;9.996;2023-07-29T08:54:41;0.80;;;0.80;;
25079;SDS011;13071;48.868;9.996;2023-07-29T08:57:08;0.60;;;0.60;;
25079;SDS011;13071;48.868;9.996;2023-07-29T08:59:35;0.77;;;0.77;;
25079;SDS011;13071;48.868;9.996;2023-07-29T09:02:02;3.03;;;0.70;;
25079;SDS011;13071;48.868;9.996;2023-07-29T09:04:29;1.23;;;0.98;;
25079;SDS011;13071;48.868;9.996;2023-07-29T09:06:57;2.58;;;0.93;;
25079;SDS011;13071;48.868;9.996;2023-07-29T09:09:25;1.75;;;1.20;;
25079;SDS011;13071;48.868;9.996;2023-07-29T09:11:52;0.82;;;0.82;;
25079;SDS011;13071;48.868;9.996;2023-07-29T09:14:19;0.90;;;0.85;;
25079;SDS011;13071;48.868;9.996;2023-07-29T09:16:46;0.82;;;0.82;;
25079;SDS011;13071;48.868;9.996;2023-07-29T09:19:13;1.45;;;1.08;;
25079;SDS011;13071;48.868;9.996;2023-07-29T09:21:40;2.45;;;1.33;;
25079;SDS011;13071;48.868;9.996;2023-07-29T09:24:08;0.80;;;0.80;;
25079;SDS011;13071;48.868;9.996;2023-07-29T09:26:36;1.60;;;1.00;;
25079;SDS011;13071;48.868;9.996;2023-07-29T09:29:02;1.60;;;1.10;;
25079;SDS011;13071;48.868;9.996;2023-07-29T09:31:29;2.33;;;1.17;;
25079;SDS011;13071;48.868;9.996;2023-07-29T09:33:56;1.30;;;1.20;;
25079;SDS011;13071;48.868;9.996;2023-07-29T09:36:24;2.08;;;1.20;;
25079;SDS011;13071;48.868;9.996;2023-07-29T09:38:54;1.83;;;1.17;;
25079;SDS011;13071;48.868;9.996;2023-07-29T09:41:26;2.35;;;1.13;;
25079;SDS011;13071;48.868;9.996;2023-07-29T09:43:56;1.45;;;1.27;;
25079;SDS011;13071;48.868;9.996;2023-07-29T09:46:25;2.47;;;1.10;;
25079;SDS011;13071;48.868;9.996;2023-07-29T09:49:07;4.03;;;1.42;;
25079;SDS011;13071;48.868;9.996;2023-07-29T09:51:36;5.07;;;1.40;;
25079;SDS011;13071;48.868;9.996;2023-07-29T09:54:05;4.28;;;3.03;;
25079;SDS011;13071;48.868;9.996;2023-07-29T09:56:33;1.63;;;1.52;;
25079;SDS011;13071;48.868;9.996;2023-07-29T09:58:59;2.20;;;1.80;;
25079;SDS011;13071;48.868;9.996;2023-07-29T10:01:26;1.73;;;1.50;;
25079;SDS011;13071;48.868;9.996;2023-07-29T10:03:54;2.28;;;1.33;;
25079;SDS011;13071;48.868;9.996;2023-07-29T10:06:25;1.10;;;1.10;;
25079;SDS011;13071;48.868;9.996;2023-07-29T10:08:53;1.42;;;1.33;;
25079;SDS011;13071;48.868;9.996;2023-07-29T10:11:20;1.30;;;1.20;;
25079;SDS011;13071;48.868;9.996;2023-07-29T10:13:49;2.65;;;1.40;;
25079;SDS011;13071;48.868;9.996;2023-07-29T10:16:16;1.83;;;1.50;;
25079;SDS011;13071;48.868;9.996;2023-07-29T10:18:44;1.58;;;1.27;;
25079;SDS011;13071;48.868;9.996;2023-07-29T10:21:11;2.60;;;1.55;;
25079;SDS011;13071;48.868;9.996;2023-07-29T10:23:42;1.52;;;1.42;;
25079;SDS011;13071;48.868;9.996;2023-07-29T10:26:14;5.43;;;1.70;;
25079;SDS011;13071;48.868;9.996;2023-07-29T10:28:46;10.23;;;2.00;;
25079;SDS011;13071;48.868;9.996;2023-07-29T10:31:17;2.50;;;1.55;;
25079;SDS011;13071;48.868;9.996;2023-07-29T10:33:46;4.20;;;1.50;;
25079;SDS011;13071;48.868;9.996;2023-07-29T10:36:13;2.92;;;1.35;;
25079;SDS011;13071;48.868;9.996;2023-07-29T10:38:40;3.00;;;1.20;;
25079;SDS011;13071;48.868;9.996;2023-07-29T10:41:08;1.00;;;1.00;;
25079;SDS011;13071;48.868;9.996;2023-07-29T10:43:35;1.33;;;1.33;;
25079;SDS011;13071;48.868;9.996;2023-07-29T10:46:18;1.17;;;1.17;;
25079;SDS011;13071;48.868;9.996;2023-07-29T10:48:52;2.38;;;1.70;;
25079;SDS011;13071;48.868;9.996;2023-07-29T10:51:23;1.42;;;1.13;;
25079;SDS011;13071;48.868;9.996;2023-07-29T10:53:52;3.03;;;1.48;;
25079;SDS011;13071;48.868;9.996;2023-07-29T10:56:24;2.92;;;1.63;;
25079;SDS011;13071;48.868;9.996;2023-07-29T10:58:52;1.67;;;1.58;;
25079;SDS011;13071;48.868;9.996;2023-07-29T11:01:27;1.70;;;1.60;;
25079;SDS011;13071;48.868;9.996;2023-07-29T11:07:07;1.30;;;0.95;;
25079;SDS011;13071;48.868;9.996;2023-07-29T11:09:51;2.28;;;0.80;;
25079;SDS011;13071;48.868;9.996;2023-07-29T11:12:36;0.63;;;0.52;;
25079;SDS011;13071;48.868;9.996;2023-07-29T11:15:04;6.18;;;0.77;;
25079;SDS011;13071;48.868;9.996;2023-07-29T11:17:41;0.30;;;0.30;;
25079;SDS011;13071;48.868;9.996;2023-07-29T11:20:09;5.53;;;1.02;;
25079;SDS011;13071;48.868;9.996;2023-07-29T11:22:37;0.70;;;0.70;;
25079;SDS011;13071;48.868;9.996;2023-07-29T11:25:04;0.80;;;0.80;;
25079;SDS011;13071;48.868;9.996;2023-07-29T11:27:33;0.70;;;0.70;;
25079;SDS011;13071;48.868;9.996;2023-07-29T11:30:00;2.45;;;0.80;;
25079;SDS011;13071;48.868;9.996;2023-07-29T11:32:30;0.95;;;0.70;;
25079;SDS011;13071;48.868;9.996;2023-07-29T11:34:59;3.10;;;0.90;;
25079;SDS011;13071;48.868;9.996;2023-07-29T11:37:27;0.60;;;0.60;;
25079;SDS011;13071;48.868;9.996;2023-07-29T11:39:54;0.50;;;0.50;;
25079;SDS011;13071;48.868;9.996;2023-07-29T11:42:21;1.33;;;0.73;;
25079;SDS011;13071;48.868;9.996;2023-07-29T11:44:48;0.90;;;0.90;;
25079;SDS011;13071;48.868;9.996;2023-07-29T11:47:14;0.80;;;0.80;;
25079;SDS011;13071;48.868;9.996;2023-07-29T11:49:41;1.80;;;0.90;;
25079;SDS011;13071;48.868;9.996;2023-07-29T11:52:10;0.90;;;0.90;;
25079;SDS011;13071;48.868;9.996;2023-07-29T11:54:37;1.05;;;1.05;;
25079;SDS011;13071;48.868;9.996;2023-07-29T11:57:05;0.90;;;0.90;;
25079;SDS011;13071;48.868;9.996;2023-07-29T11:59:33;0.93;;;0.93;;
25079;SDS011;13071;48.868;9.996;2023-07-29T12:02:00;1.67;;;1.00;;
25079;SDS011;13071;48.868;9.996;2023-07-29T12:04:31;1.88;;;1.27;;
25079;SDS011;13071;48.868;9.996;2023-07-29T12:06:59;1.10;;;0.90;;
25079;SDS011;13071;48.868;9.996;2023-07-29T12:09:28;0.85;;;0.85;;
25079;SDS011;13071;48.868;9.996;2023-07-29T12:11:55;6.88;;;0.90;;
25079;SDS011;13071;48.868;9.996;2023-07-29T12:14:25;0.80;;;0.80;;
25079;SDS011;13071;48.868;9.996;2023-07-29T12:16:52;3.53;;;1.15;;
25079;SDS011;13071;48.868;9.996;2023-07-29T12:19:19;3.80;;;1.52;;
25079;SDS011;13071;48.868;9.996;2023-07-29T12:21:47;0.80;;;0.80;;
25079;SDS011;13071;48.868;9.996;2023-07-29T12:24:14;2.33;;;1.15;;
25079;SDS011;13071;48.868;9.996;2023-07-29T12:26:42;1.13;;;1.02;;
25079;SDS011;13071;48.868;9.996;2023-07-29T12:29:11;1.30;;;1.25;;
25079;SDS011;13071;48.868;9.996;2023-07-29T12:31:38;1.20;;;1.10;;
25079;SDS011;13071;48.868;9.996;2023-07-29T12:34:05;1.15;;;1.15;;
25079;SDS011;13071;48.868;9.996;2023-07-29T12:36:41;1.40;;;1.30;;
25079;SDS011;13071;48.868;9.996;2023-07-29T12:39:15;1.40;;;1.30;;
25079;SDS011;13071;48.868;9.996;2023-07-29T12:41:44;1.33;;;1.23;;
25079;SDS011;13071;48.868;9.996;2023-07-29T12:44:11;1.38;;;1.27;;
25079;SDS011;13071;48.868;9.996;2023-07-29T12:46:40;1.25;;;1.10;;
25079;SDS011;13071;48.868;9.996;2023-07-29T12:49:08;1.33;;;1.23;;
25079;SDS011;13071;48.868;9.996;2023-07-29T12:51:35;1.30;;;1.30;;
25079;SDS011;13071;48.868;9.996;2023-07-29T12:54:02;1.20;;;1.20;;
25079;SDS011;13071;48.868;9.996;2023-07-29T12:56:29;1.10;;;1.10;;
25079;SDS011;13071;48.868;9.996;2023-07-29T12:58:57;1.20;;;1.17;;
25079;SDS011;13071;48.868;9.996;2023-07-29T13:01:27;1.40;;;1.30;;
25079;SDS011;13071;48.868;9.996;2023-07-29T13:03:54;0.93;;;0.93;;
25079;SDS011;13071;48.868;9.996;2023-07-29T13:06:21;1.10;;;1.10;;
25079;SDS011;13071;48.868;9.996;2023-07-29T13:08:48;1.60;;;1.25;;
25079;SDS011;13071;48.868;9.996;2023-07-29T13:11:15;1.23;;;1.23;;
25079;SDS011;13071;48.868;9.996;2023-07-29T13:13:42;1.38;;;1.13;;
25079;SDS011;13071;48.868;9.996;2023-07-29T13:16:11;1.40;;;1.30;;
25079;SDS011;13071;48.868;9.996;2023-07-29T13:18:38;1.30;;;1.30;;
25079;SDS011;13071;48.868;9.996;2023-07-29T13:21:05;1.35;;;1.25;;
25079;SDS011;13071;48.868;9.996;2023-07-29T13:23:32;1.45;;;1.27;;
25079;SDS011;13071;48.868;9.996;2023-07-29T13:25:58;1.00;;;1.00;;
25079;SDS011;13071;48.868;9.996;2023-07-29T13:28:25;1.35;;;1.25;;
25079;SDS011;13071;48.868;9.996;2023-07-29T13:30:52;4.85;;;1.85;;
25079;SDS011;13071;48.868;9.996;2023-07-29T13:33:20;1.48;;;1.42;;
25079;SDS011;13071;48.868;9.996;2023-07-29T13:35:46;1.67;;;1.58;;
25079;SDS011;13071;48.868;9.996;2023-07-29T13:38:13;1.23;;;1.23;;
25079;SDS011;13071;48.868;9.996;2023-07-29T13:40:40;1.20;;;1.10;;
25079;SDS011;13071;48.868;9.996;2023-07-29T13:43:06;2.38;;;2.15;;
25079;SDS011;13071;48.868;9.996;2023-07-29T13:45:33;1.50;;;1.40;;
25079;SDS011;13071;48.868;9.996;2023-07-29T13:48:00;1.30;;;1.30;;
25079;SDS011;13071;48.868;9.996;2023-07-29T13:50:28;1.40;;;1.30;;
25079;SDS011;13071;48.868;9.996;2023-07-29T13:52:55;1.70;;;1.48;;
25079;SDS011;13071;48.868;9.996;2023-07-29T13:55:22;1.48;;;1.38;;
25079;SDS011;13071;48.868;9.996;2023-07-29T13:57:48;1.40;;;1.40;;
25079;SDS011;13071;48.868;9.996;2023-07-29T14:00:15;5.80;;;1.33;;
25079;SDS011;13071;48.868;9.996;2023-07-29T14:02:42;1.60;;;1.50;;
25079;SDS011;13071;48.868;9.996;2023-07-29T14:05:08;1.40;;;1.38;;
25079;SDS011;13071;48.868;9.996;2023-07-29T14:07:38;1.60;;;1.50;;
25079;SDS011;13071;48.868;9.996;2023-07-29T14:10:05;1.40;;;1.30;;
25079;SDS011;13071;48.868;9.996;2023-07-29T14:12:32;1.40;;;1.30;;
25079;SDS011;13071;48.868;9.996;2023-07-29T14:14:59;1.05;;;1.05;;
25079;SDS011;13071;48.868;9.996;2023-07-29T14:17:26;1.30;;;1.30;;
25079;SDS011;13071;48.868;9.996;2023-07-29T14:19:52;3.17;;;1.42;;
25079;SDS011;13071;48.868;9.996;2023-07-29T14:22:19;1.50;;;1.40;;
25079;SDS011;13071;48.868;9.996;2023-07-29T14:24:47;1.30;;;1.20;;
25079;SDS011;13071;48.868;9.996;2023-07-29T14:27:14;1.40;;;1.30;;
25079;SDS011;13071;48.868;9.996;2023-07-29T14:29:41;1.30;;;1.20;;
25079;SDS011;13071;48.868;9.996;2023-07-29T14:32:08;2.38;;;1.45;;
25079;SDS011;13071;48.868;9.996;2023-07-29T14:34:34;1.50;;;1.40;;
25079;SDS011;13071;48.868;9.996;2023-07-29T14:37:01;1.40;;;1.30;;
25079;SDS011;13071;48.868;9.996;2023-07-29T14:39:28;1.77;;;1.50;;
25079;SDS011;13071;48.868;9.996;2023-07-29T14:41:56;1.92;;;1.65;;
25079;SDS011;13071;48.868;9.996;2023-07-29T14:44:22;7.00;;;1.40;;
25079;SDS011;13071;48.868;9.996;2023-07-29T14:46:50;1.85;;;1.70;;
25079;SDS011;13071;48.868;9.996;2023-07-29T14:49:16;1.80;;;1.70;;
25079;SDS011;13071;48.868;9.996;2023-07-29T14:51:43;1.52;;;1.42;;
25079;SDS011;13071;48.868;9.996;2023-07-29T14:54:10;1.30;;;1.30;;